createdAt,value
2022-09-23T00:01:12.266Z,101366.84
2022-09-23T00:03:17.229Z,101190.97
2022-09-23T00:05:20.705Z,101355.06
2022-09-23T00:07:24.155Z,101353.34
2022-09-23T00:09:27.547Z,101356.56
2022-09-23T00:11:32.972Z,101356.63
2022-09-23T00:13:37.521Z,101353.78
2022-09-23T00:15:41.047Z,101352.31
2022-09-23T00:17:44.584Z,101344.41
2022-09-23T00:19:48.782Z,101299.22
2022-09-23T00:21:52.104Z,101348.75
2022-09-23T00:23:55.660Z,101337.25
2022-09-23T00:26:00.168Z,101343.47
2022-09-23T00:28:05.042Z,101341.75
2022-09-23T00:30:10.849Z,101342.63
2022-09-23T00:32:14.451Z,101339.13
2022-09-23T00:34:17.789Z,101276.97
2022-09-23T00:36:21.135Z,101339.91
2022-09-23T00:38:24.686Z,101331.97
2022-09-23T00:40:28.088Z,101316.97
2022-09-23T00:42:31.653Z,101333.75
2022-09-23T00:44:47.997Z,101338.16
2022-09-23T00:46:51.602Z,101334.88
2022-09-23T00:49:00.418Z,101329.31
2022-09-23T00:51:05.463Z,101337.19
2022-09-23T00:53:13.499Z,101279.75
2022-09-23T00:55:20.054Z,101286.53
2022-09-23T00:57:24.765Z,101327.38
2022-09-23T00:59:29.011Z,101297.44
2022-09-23T01:01:34.133Z,101313.28
2022-09-23T01:03:37.628Z,101322.22
2022-09-23T01:05:42.439Z,101307.09
2022-09-23T01:07:47.146Z,101312.47
2022-09-23T01:09:51.235Z,101272.56
2022-09-23T01:12:01.536Z,101308.69
2022-09-23T01:14:24.124Z,101138.59
2022-09-23T01:16:37.694Z,101289.25
2022-09-23T01:18:47.203Z,101313.22
2022-09-23T01:21:01.798Z,101311.47
2022-09-23T01:23:18.722Z,101312.19
2022-09-23T01:25:48.795Z,101312.19
2022-09-23T01:28:13.291Z,101289.00
2022-09-23T01:30:43.708Z,101285.44
2022-09-23T01:33:04.751Z,101312.88
2022-09-23T01:35:14.700Z,101313.69
2022-09-23T01:37:28.625Z,101307.56
2022-09-23T01:39:38.384Z,101257.00
2022-09-23T01:41:52.426Z,101303.13
2022-09-23T01:44:01.170Z,101297.91
2022-09-23T01:46:11.282Z,101289.72
2022-09-23T01:48:20.080Z,101295.47
2022-09-23T01:50:46.191Z,101299.88
2022-09-23T01:52:50.424Z,101297.25
2022-09-23T01:54:58.853Z,101294.53
2022-09-23T01:57:06.003Z,101299.69
2022-09-23T01:59:14.730Z,101269.25
2022-09-23T02:01:27.799Z,101209.38
2022-09-23T02:03:35.855Z,101291.56
2022-09-23T02:05:45.217Z,101298.38
2022-09-23T02:07:55.112Z,101246.19
2022-09-23T02:10:03.905Z,101061.16
2022-09-23T02:12:13.442Z,101297.72
2022-09-23T02:14:21.272Z,101136.16
2022-09-23T02:16:39.407Z,101274.91
2022-09-23T02:18:48.588Z,101154.13
2022-09-23T02:20:56.492Z,101295.44
2022-09-23T02:23:04.414Z,101266.28
2022-09-23T02:25:09.761Z,101290.31
2022-09-23T02:27:21.142Z,101288.38
2022-09-23T02:29:33.138Z,101286.66
2022-09-23T02:31:43.221Z,101229.91
2022-09-23T02:33:55.468Z,101285.69
2022-09-23T02:36:04.241Z,101247.41
2022-09-23T02:38:19.103Z,101246.84
2022-09-23T02:40:26.035Z,101113.22
2022-09-23T02:42:38.394Z,101254.56
2022-09-23T02:44:41.805Z,101266.22
2022-09-23T02:46:47.857Z,101238.47
2022-09-23T02:48:55.460Z,101262.53
2022-09-23T02:51:02.243Z,101237.75
2022-09-23T02:53:06.555Z,101256.19
2022-09-23T02:55:13.037Z,101222.22
2022-09-23T02:57:16.473Z,101260.38
2022-09-23T02:59:21.778Z,101265.41
2022-09-23T03:01:34.941Z,101252.41
2022-09-23T03:03:47.954Z,101248.81
2022-09-23T03:05:56.141Z,101135.81
2022-09-23T03:08:20.228Z,101245.06
2022-09-23T03:10:31.023Z,101241.53
2022-09-23T03:12:41.612Z,101240.72
2022-09-23T03:14:55.156Z,101242.31
2022-09-23T03:17:05.090Z,101126.50
2022-09-23T03:19:20.933Z,101251.88
2022-09-23T03:21:30.542Z,101097.06
2022-09-23T03:23:36.945Z,101242.75
2022-09-23T03:25:44.711Z,101126.56
2022-09-23T03:27:48.011Z,101254.78
2022-09-23T03:29:54.083Z,101248.72
2022-09-23T03:31:59.057Z,101227.75
2022-09-23T03:34:07.075Z,101235.66
2022-09-23T03:36:31.896Z,101222.06
2022-09-23T03:38:40.476Z,101244.22
2022-09-23T03:40:50.836Z,101248.53
2022-09-23T03:42:57.467Z,101236.38
2022-09-23T03:45:01.517Z,101236.31
2022-09-23T03:47:04.962Z,101212.41
2022-09-23T03:49:13.803Z,101242.44
2022-09-23T03:51:24.079Z,101231.91
2022-09-23T03:53:27.522Z,101220.16
2022-09-23T03:55:32.104Z,101117.50
2022-09-23T03:57:35.742Z,101236.81
2022-09-23T03:59:39.243Z,101233.25
2022-09-23T04:01:43.066Z,101231.44
2022-09-23T04:03:46.597Z,101179.22
2022-09-23T04:05:50.077Z,101209.06
2022-09-23T04:07:54.941Z,101220.97
2022-09-23T04:09:58.958Z,101179.06
2022-09-23T04:12:03.548Z,101229.31
2022-09-23T04:14:07.176Z,101227.56
2022-09-23T04:16:10.857Z,101186.56
2022-09-23T04:18:14.307Z,101103.06
2022-09-23T04:20:19.005Z,101196.81
2022-09-23T04:22:22.542Z,101216.59
2022-09-23T04:24:27.404Z,101201.28
2022-09-23T04:26:31.041Z,101215.63
2022-09-23T04:28:35.323Z,101163.31
2022-09-23T04:30:41.639Z,101207.56
2022-09-23T04:32:45.070Z,101190.69
2022-09-23T04:34:48.774Z,101188.03
2022-09-23T04:36:52.107Z,101190.84
2022-09-23T04:38:56.384Z,101166.94
2022-09-23T04:41:01.294Z,101198.56
2022-09-23T04:43:04.812Z,101170.94
2022-09-23T04:45:09.169Z,101201.28
2022-09-23T04:47:12.971Z,101198.44
2022-09-23T04:49:16.969Z,101149.88
2022-09-23T04:51:21.949Z,101189.81
2022-09-23T04:53:25.520Z,101186.38
2022-09-23T04:55:29.297Z,101187.22
2022-09-23T04:57:34.447Z,101188.19
2022-09-23T04:59:37.987Z,101175.66
2022-09-23T05:01:41.621Z,101184.63
2022-09-23T05:03:46.065Z,101188.13
2022-09-23T05:05:49.408Z,101182.06
2022-09-23T05:07:52.825Z,101182.88
2022-09-23T05:09:56.237Z,101180.28
2022-09-23T05:11:59.763Z,101183.00
2022-09-23T05:14:04.572Z,101179.53
2022-09-23T05:16:09.655Z,101134.88
2022-09-23T05:18:13.125Z,101140.97
2022-09-23T05:20:17.814Z,101194.00
2022-09-23T05:22:21.191Z,101193.84
2022-09-23T05:24:25.074Z,101145.97
2022-09-23T05:26:30.484Z,101190.19
2022-09-23T05:28:34.893Z,101182.28
2022-09-23T05:30:39.634Z,101162.91
2022-09-23T05:32:43.125Z,101181.38
2022-09-23T05:34:46.524Z,101183.34
2022-09-23T05:36:49.869Z,101182.47
2022-09-23T05:38:54.629Z,101183.31
2022-09-23T05:40:58.886Z,101124.63
2022-09-23T05:43:02.205Z,101186.69
2022-09-23T05:45:07.579Z,101158.22
2022-09-23T05:47:12.823Z,101190.25
2022-09-23T05:49:16.294Z,101197.06
2022-09-23T05:51:21.115Z,101194.56
2022-09-23T05:53:24.542Z,101189.34
2022-09-23T05:55:28.615Z,101197.25
2022-09-23T05:57:33.236Z,101181.94
2022-09-23T05:59:38.167Z,101176.38
2022-09-23T06:01:41.772Z,101207.31
2022-09-23T06:03:48.625Z,101205.78
2022-09-23T06:05:54.038Z,101198.28
2022-09-23T06:07:58.374Z,101085.41
2022-09-23T06:10:01.777Z,100991.50
2022-09-23T06:12:06.383Z,101200.16
2022-09-23T06:14:13.816Z,100976.63
2022-09-23T06:16:17.515Z,101205.31
2022-09-23T06:18:20.983Z,101198.28
2022-09-23T06:20:25.766Z,101180.09
2022-09-23T06:22:29.149Z,101064.84
2022-09-23T06:24:32.989Z,101204.53
2022-09-23T06:26:37.699Z,101209.81
2022-09-23T06:28:43.290Z,101211.00
2022-09-23T06:30:47.729Z,101206.09
2022-09-23T06:32:52.202Z,101167.97
2022-09-23T06:34:55.618Z,101201.06
2022-09-23T06:37:07.484Z,101201.78
2022-09-23T06:39:15.992Z,101045.97
2022-09-23T06:41:20.712Z,101196.47
2022-09-23T06:43:25.446Z,101098.06
2022-09-23T06:45:29.872Z,101185.81
2022-09-23T06:47:33.315Z,101189.78
2022-09-23T06:49:36.842Z,101186.63
2022-09-23T06:51:40.298Z,101183.06
2022-09-23T06:53:45.110Z,101097.47
2022-09-23T06:55:48.420Z,101200.47
2022-09-23T06:57:53.682Z,101196.81
2022-09-23T06:59:58.401Z,101146.91
2022-09-23T07:02:01.946Z,101199.09
2022-09-23T07:04:07.579Z,101077.47
2022-09-23T07:06:11.893Z,101204.28
2022-09-23T07:08:15.654Z,101208.84
2022-09-23T07:10:20.516Z,101086.03
2022-09-23T07:12:24.126Z,101214.78
2022-09-23T07:14:27.678Z,101059.91
2022-09-23T07:16:31.635Z,101117.72
2022-09-23T07:18:37.323Z,101204.66
2022-09-23T07:20:40.997Z,101207.03
2022-09-23T07:22:44.904Z,101204.78
2022-09-23T07:24:48.363Z,101200.00
2022-09-23T07:26:53.248Z,101212.78
2022-09-23T07:29:04.619Z,101202.88
2022-09-23T07:31:11.060Z,101182.38
2022-09-23T07:33:28.866Z,101188.19
2022-09-23T07:35:35.151Z,101212.66
2022-09-23T07:37:39.708Z,101165.69
2022-09-23T07:39:43.659Z,101069.06
2022-09-23T07:41:47.198Z,101168.72
2022-09-23T07:43:52.665Z,101207.53
2022-09-23T07:45:56.093Z,101182.84
2022-09-23T07:47:59.980Z,101209.59
2022-09-23T07:50:03.441Z,101211.88
2022-09-23T07:52:06.926Z,101055.66
2022-09-23T07:54:13.180Z,101215.38
2022-09-23T07:56:19.019Z,101171.97
2022-09-23T07:58:22.644Z,101077.31
2022-09-23T08:00:27.573Z,101214.06
2022-09-23T08:02:31.421Z,101191.06
2022-09-23T08:04:34.960Z,101212.31
2022-09-23T08:06:42.273Z,101214.28
2022-09-23T08:08:51.170Z,101212.69
2022-09-23T08:11:02.515Z,101212.97
2022-09-23T08:13:05.905Z,101214.69
2022-09-23T08:15:10.068Z,101123.31
2022-09-23T08:17:14.895Z,101216.69
2022-09-23T08:19:18.571Z,101213.13
2022-09-23T08:21:23.053Z,101216.59
2022-09-23T08:23:26.638Z,101219.13
2022-09-23T08:25:34.079Z,101211.38
2022-09-23T08:27:39.247Z,101211.25
2022-09-23T08:29:42.691Z,101181.47
2022-09-23T08:31:47.019Z,101209.75
2022-09-23T08:33:56.718Z,101165.75
2022-09-23T08:36:01.339Z,101166.50
2022-09-23T08:38:04.947Z,101209.88
2022-09-23T08:40:09.516Z,101212.91
2022-09-23T08:42:20.065Z,101195.28
2022-09-23T08:44:29.039Z,101164.81
2022-09-23T08:46:37.603Z,101148.13
2022-09-23T08:48:44.822Z,101170.44
2022-09-23T08:50:55.631Z,101116.53
2022-09-23T08:53:02.976Z,101185.22
2022-09-23T08:55:12.564Z,101182.81
2022-09-23T08:57:31.542Z,101191.94
2022-09-23T08:59:42.732Z,101193.78
2022-09-23T09:01:50.508Z,101152.84
2022-09-23T09:03:56.923Z,101153.84
2022-09-23T09:06:01.978Z,101126.75
2022-09-23T09:08:05.930Z,101185.44
2022-09-23T09:10:18.179Z,101183.13
2022-09-23T09:12:28.026Z,101157.66
2022-09-23T09:14:40.101Z,101102.75
2022-09-23T09:17:00.558Z,101179.88
2022-09-23T09:19:13.387Z,101152.50
2022-09-23T09:21:18.128Z,101186.13
2022-09-23T09:23:23.635Z,101177.69
2022-09-23T09:25:38.993Z,101187.25
2022-09-23T09:27:42.943Z,101178.63
2022-09-23T09:29:50.219Z,101182.09
2022-09-23T09:31:53.830Z,101184.66
2022-09-23T09:34:03.723Z,101183.88
2022-09-23T09:36:23.514Z,101190.13
2022-09-23T09:38:27.901Z,101187.53
2022-09-23T09:40:31.319Z,101184.84
2022-09-23T09:42:40.309Z,101169.00
2022-09-23T09:44:50.490Z,101165.53
2022-09-23T09:47:02.955Z,101152.31
2022-09-23T09:49:15.302Z,101157.72
2022-09-23T09:51:22.209Z,101160.56
2022-09-23T09:53:27.585Z,101160.59
2022-09-23T09:55:30.980Z,101165.09
2022-09-23T09:57:40.026Z,101145.78
2022-09-23T09:59:44.280Z,101155.75
2022-09-23T10:01:47.911Z,101136.34
2022-09-23T10:03:56.989Z,101104.63
2022-09-23T10:06:14.942Z,101119.78
2022-09-23T10:08:27.175Z,101141.25
2022-09-23T10:10:33.182Z,101156.28
2022-09-23T10:12:45.685Z,101156.28
2022-09-23T10:14:51.610Z,101150.22
2022-09-23T10:17:05.530Z,101151.16
2022-09-23T10:19:24.903Z,101159.06
2022-09-23T10:21:35.655Z,101151.09
2022-09-23T10:23:44.653Z,101154.75
2022-09-23T10:25:57.595Z,101152.22
2022-09-23T10:28:31.755Z,101137.38
2022-09-23T10:30:38.438Z,101050.19
2022-09-23T10:32:45.919Z,101152.56
2022-09-23T10:34:53.103Z,101142.00
2022-09-23T10:37:04.338Z,101083.91
2022-09-23T10:39:27.767Z,101148.38
2022-09-23T10:41:54.673Z,101147.72
2022-09-23T10:44:24.962Z,101082.34
2022-09-23T10:46:49.541Z,101137.94
2022-09-23T10:49:08.966Z,101138.09
2022-09-23T10:51:25.479Z,101118.69
2022-09-23T10:53:42.005Z,101136.31
2022-09-23T10:55:59.055Z,101140.66
2022-09-23T10:58:20.670Z,101057.84
2022-09-23T11:00:28.339Z,101102.97
2022-09-23T11:02:49.539Z,101124.31
2022-09-23T11:05:21.321Z,101123.50
2022-09-23T11:07:36.917Z,101104.09
2022-09-23T11:09:55.785Z,101119.97
2022-09-23T11:12:14.725Z,101122.63
2022-09-23T11:14:32.728Z,101119.97
2022-09-23T11:16:53.629Z,101118.19
2022-09-23T11:19:16.152Z,101105.00
2022-09-23T11:21:39.482Z,101112.03
2022-09-23T11:24:15.926Z,101113.81
2022-09-23T11:26:33.091Z,101114.66
2022-09-23T11:29:09.093Z,101119.97
2022-09-23T11:31:27.198Z,101114.66
2022-09-23T11:33:45.879Z,101111.13
2022-09-23T11:35:52.523Z,101042.38
2022-09-23T11:38:02.587Z,101103.22
2022-09-23T11:40:15.457Z,101104.13
2022-09-23T11:42:24.120Z,101095.31
2022-09-23T11:44:33.109Z,101041.56
2022-09-23T11:46:41.811Z,101088.25
2022-09-23T11:48:50.884Z,101092.63
2022-09-23T11:51:00.768Z,101082.06
2022-09-23T11:53:12.734Z,101042.31
2022-09-23T11:55:22.966Z,101053.75
2022-09-23T11:57:46.469Z,101078.44
2022-09-23T11:59:58.065Z,101085.47
2022-09-23T12:02:18.355Z,101066.97
2022-09-23T12:04:31.271Z,101081.19
2022-09-23T12:06:41.359Z,101066.13
2022-09-23T12:08:44.675Z,101016.81
2022-09-23T12:10:57.509Z,101076.78
2022-09-23T12:13:08.251Z,101067.94
2022-09-23T12:15:25.093Z,101066.22
2022-09-23T12:18:09.411Z,101070.63
2022-09-23T12:20:33.803Z,101056.50
2022-09-23T12:22:50.553Z,101065.38
2022-09-23T12:25:00.473Z,101064.47
2022-09-23T12:27:08.175Z,101050.34
2022-09-23T12:29:15.131Z,101031.88
2022-09-23T12:31:22.866Z,101067.09
2022-09-23T12:33:29.961Z,101045.94
2022-09-23T12:35:42.359Z,101055.66
2022-09-23T12:37:45.787Z,101057.41
2022-09-23T12:39:49.256Z,101049.47
2022-09-23T12:41:59.381Z,101047.69
2022-09-23T12:44:16.432Z,101045.94
2022-09-23T12:46:25.626Z,101048.56
2022-09-23T12:48:46.668Z,101045.94
2022-09-23T12:51:16.287Z,101048.59
2022-09-23T12:53:57.216Z,101016.03
2022-09-23T12:56:01.683Z,101023.06
2022-09-23T12:58:48.989Z,101051.25
2022-09-23T13:01:08.409Z,101045.97
2022-09-23T13:03:31.618Z,101001.91
2022-09-23T13:06:02.306Z,101038.03
2022-09-23T13:08:09.379Z,101040.69
2022-09-23T13:10:18.164Z,101031.84
2022-09-23T13:12:26.695Z,101010.69
2022-09-23T13:14:33.407Z,100988.56
2022-09-23T13:16:43.531Z,101031.59
2022-09-23T13:18:56.881Z,101035.16
2022-09-23T13:21:01.558Z,101029.09
2022-09-23T13:23:23.447Z,101026.47
2022-09-23T13:25:28.975Z,101027.41
2022-09-23T13:27:34.957Z,101023.94
2022-09-23T13:29:44.172Z,101022.16
2022-09-23T13:31:48.436Z,101023.88
2022-09-23T13:33:57.710Z,101029.19
2022-09-23T13:36:04.280Z,100852.28
2022-09-23T13:38:12.269Z,101017.72
2022-09-23T13:40:23.745Z,101030.09
2022-09-23T13:42:31.176Z,101023.06
2022-09-23T13:44:34.777Z,101019.56
2022-09-23T13:46:46.690Z,101020.41
2022-09-23T13:48:54.575Z,101016.91
2022-09-23T13:50:58.077Z,101012.53
2022-09-23T13:53:07.127Z,101016.03
2022-09-23T13:55:29.248Z,101019.56
2022-09-23T13:57:34.904Z,101004.59
2022-09-23T13:59:42.296Z,100993.16
2022-09-23T14:01:47.012Z,101007.22
2022-09-23T14:03:51.200Z,101011.66
2022-09-23T14:05:56.017Z,100978.19
2022-09-23T14:08:03.091Z,100945.56
2022-09-23T14:10:08.074Z,101009.00
2022-09-23T14:12:12.351Z,100961.44
2022-09-23T14:14:16.240Z,100950.00
2022-09-23T14:16:19.760Z,100965.84
2022-09-23T14:18:41.503Z,100991.38
2022-09-23T14:20:50.196Z,100985.22
2022-09-23T14:23:06.673Z,100987.84
2022-09-23T14:25:15.489Z,100964.94
2022-09-23T14:27:22.208Z,100983.44
2022-09-23T14:29:28.403Z,100984.34
2022-09-23T14:31:32.856Z,100974.63
2022-09-23T14:33:41.678Z,100961.44
2022-09-23T14:35:47.982Z,100981.69
2022-09-23T14:38:10.947Z,100891.00
2022-09-23T14:40:18.347Z,100961.44
2022-09-23T14:42:21.724Z,100973.75
2022-09-23T14:44:28.035Z,100979.94
2022-09-23T14:46:34.224Z,100972.88
2022-09-23T14:48:37.665Z,100978.16
2022-09-23T14:50:48.511Z,100965.84
2022-09-23T14:52:52.719Z,100906.84
2022-09-23T14:54:56.165Z,100958.78
2022-09-23T14:57:01.807Z,100965.84
2022-09-23T14:59:25.687Z,100958.78
2022-09-23T15:01:38.656Z,100959.69
2022-09-23T15:03:48.183Z,100962.31
2022-09-23T15:05:57.773Z,100954.41
2022-09-23T15:08:03.865Z,100941.19
2022-09-23T15:10:09.660Z,100954.41
2022-09-23T15:12:16.288Z,100950.00
2022-09-23T15:14:37.311Z,100895.41
2022-09-23T15:16:42.067Z,100880.44
2022-09-23T15:18:46.553Z,100930.63
2022-09-23T15:20:52.137Z,100948.25
2022-09-23T15:22:56.836Z,100950.88
2022-09-23T15:25:12.656Z,100925.34
2022-09-23T15:27:41.530Z,100937.63
2022-09-23T15:29:44.918Z,100948.19
2022-09-23T15:31:48.297Z,100950.84
2022-09-23T15:33:52.093Z,100921.81
2022-09-23T15:35:55.800Z,100935.88
2022-09-23T15:38:03.232Z,100950.00
2022-09-23T15:40:07.638Z,100944.69
2022-09-23T15:42:11.777Z,100951.75
2022-09-23T15:44:20.418Z,100914.75
2022-09-23T15:46:27.384Z,100922.66
2022-09-23T15:48:38.682Z,100937.66
2022-09-23T15:50:42.711Z,100948.22
2022-09-23T15:52:46.041Z,100935.00
2022-09-23T15:54:49.429Z,100949.97
2022-09-23T15:56:52.794Z,100947.34
2022-09-23T15:58:56.237Z,100950.84
2022-09-23T16:01:02.012Z,100947.34
2022-09-23T16:03:06.603Z,100949.06
2022-09-23T16:05:18.460Z,100940.28
2022-09-23T16:07:21.861Z,100939.41
2022-09-23T16:09:26.604Z,100944.69
2022-09-23T16:11:32.776Z,100948.22
2022-09-23T16:13:36.106Z,100940.25
2022-09-23T16:15:40.017Z,100941.16
2022-09-23T16:17:44.857Z,100938.53
2022-09-23T16:19:48.178Z,100920.03
2022-09-23T16:21:51.620Z,100935.00
2022-09-23T16:23:57.023Z,100880.44
2022-09-23T16:26:00.972Z,100938.53
2022-09-23T16:28:05.362Z,100919.16
2022-09-23T16:30:10.058Z,100936.78
2022-09-23T16:32:15.332Z,100870.78
2022-09-23T16:34:22.857Z,100933.22
2022-09-23T16:36:28.863Z,100935.88
2022-09-23T16:38:32.763Z,100935.00
2022-09-23T16:40:36.177Z,100925.31
2022-09-23T16:42:39.529Z,100942.06
2022-09-23T16:44:43.097Z,100928.81
2022-09-23T16:46:46.504Z,100922.66
2022-09-23T16:48:52.984Z,100934.97
2022-09-23T16:50:57.981Z,100935.00
2022-09-23T16:53:01.526Z,100932.34
2022-09-23T16:55:05.520Z,100909.44
2022-09-23T16:57:09.103Z,100942.88
2022-09-23T16:59:12.981Z,100946.41
2022-09-23T17:01:37.085Z,100939.34
2022-09-23T17:03:42.282Z,100939.28
2022-09-23T17:05:46.915Z,100948.94
2022-09-23T17:07:51.723Z,100899.59
2022-09-23T17:09:55.136Z,100948.06
2022-09-23T17:12:07.674Z,100946.31
2022-09-23T17:14:11.301Z,100940.13
2022-09-23T17:16:24.888Z,100948.06
2022-09-23T17:18:28.676Z,100948.06
2022-09-23T17:20:32.039Z,100802.78
2022-09-23T17:22:35.404Z,100918.16
2022-09-23T17:24:40.161Z,100927.84
2022-09-23T17:26:44.203Z,100908.47
2022-09-23T17:28:47.602Z,100930.47
2022-09-23T17:30:52.680Z,100899.69
2022-09-23T17:32:55.946Z,100888.19
2022-09-23T17:35:04.403Z,100902.25
2022-09-23T17:37:07.735Z,100902.25
2022-09-23T17:39:11.118Z,100918.97
2022-09-23T17:41:19.540Z,100913.56
2022-09-23T17:43:25.004Z,100908.22
2022-09-23T17:45:28.480Z,100894.94
2022-09-23T17:47:33.571Z,100909.88
2022-09-23T17:49:37.241Z,100910.69
2022-09-23T17:51:41.059Z,100910.63
2022-09-23T17:53:46.570Z,100915.91
2022-09-23T17:55:57.324Z,100909.81
2022-09-23T17:58:02.195Z,100752.16
2022-09-23T18:00:07.470Z,100902.88
2022-09-23T18:02:15.817Z,100904.66
2022-09-23T18:04:19.675Z,100911.69
2022-09-23T18:06:25.889Z,100908.16
2022-09-23T18:08:31.802Z,100911.63
2022-09-23T18:10:35.233Z,100798.06
2022-09-23T18:12:38.561Z,100902.88
2022-09-23T18:14:45.217Z,100885.25
2022-09-23T18:16:50.332Z,100896.66
2022-09-23T18:18:54.080Z,100903.53
2022-09-23T18:21:01.181Z,100915.72
2022-09-23T18:23:04.604Z,100861.94
2022-09-23T18:25:22.984Z,100915.69
2022-09-23T18:27:35.240Z,100854.00
2022-09-23T18:29:38.632Z,100846.09
2022-09-23T18:31:44.958Z,100917.50
2022-09-23T18:33:50.619Z,100907.06
2022-09-23T18:35:54.151Z,100901.78
2022-09-23T18:37:57.687Z,100893.81
2022-09-23T18:40:01.057Z,100898.19
2022-09-23T18:42:04.661Z,100914.06
2022-09-23T18:44:08.235Z,100915.78
2022-09-23T18:46:14.427Z,100915.78
2022-09-23T18:48:36.600Z,100826.78
2022-09-23T18:50:43.472Z,100915.78
2022-09-23T18:52:48.176Z,100903.44
2022-09-23T18:54:55.051Z,100916.69
2022-09-23T18:56:59.182Z,100916.63
2022-09-23T18:59:02.571Z,100924.53
2022-09-23T19:01:07.879Z,100924.53
2022-09-23T19:03:11.300Z,100923.69
2022-09-23T19:05:16.130Z,100925.41
2022-09-23T19:07:19.561Z,100903.41
2022-09-23T19:09:23.247Z,100749.28
2022-09-23T19:11:26.826Z,100904.31
2022-09-23T19:13:30.638Z,100921.91
2022-09-23T19:15:34.158Z,100898.97
2022-09-23T19:17:37.527Z,100900.72
2022-09-23T19:19:40.944Z,100918.34
2022-09-23T19:21:45.771Z,100923.59
2022-09-23T19:23:51.319Z,100893.59
2022-09-23T19:25:55.960Z,100897.13
2022-09-23T19:28:00.112Z,100917.38
2022-09-23T19:30:07.054Z,100931.44
2022-09-23T19:32:10.549Z,100920.91
2022-09-23T19:34:15.570Z,100843.31
2022-09-23T19:36:24.268Z,100896.19
2022-09-23T19:38:29.027Z,100917.28
2022-09-23T19:40:32.485Z,100904.88
2022-09-23T19:42:37.209Z,100896.03
2022-09-23T19:44:40.988Z,100912.72
2022-09-23T19:46:45.696Z,100879.19
2022-09-23T19:48:49.550Z,100910.97
2022-09-23T19:50:52.892Z,100912.78
2022-09-23T19:52:56.237Z,100910.16
2022-09-23T19:55:01.548Z,100912.69
2022-09-23T19:57:05.127Z,100911.59
2022-09-23T19:59:09.364Z,100912.31
2022-09-23T20:01:12.914Z,100757.84
2022-09-23T20:03:17.984Z,100901.53
2022-09-23T20:05:21.455Z,100889.25
2022-09-23T20:07:25.096Z,100857.56
2022-09-23T20:09:28.969Z,100897.38
2022-09-23T20:11:34.563Z,100905.28
2022-09-23T20:13:39.038Z,100900.94
2022-09-23T20:15:43.603Z,100910.59
2022-09-23T20:17:47.124Z,100894.69
2022-09-23T20:19:50.456Z,100893.75
2022-09-23T20:22:07.734Z,100891.91
2022-09-23T20:24:12.359Z,100852.22
2022-09-23T20:26:33.510Z,100871.69
2022-09-23T20:28:38.475Z,100895.47
2022-09-23T20:30:43.922Z,100885.91
2022-09-23T20:32:48.593Z,100875.31
2022-09-23T20:34:53.315Z,100870.94
2022-09-23T20:36:56.859Z,100880.63
2022-09-23T20:39:01.631Z,100891.97
2022-09-23T20:41:06.637Z,100882.09
2022-09-23T20:43:10.039Z,100887.47
2022-09-23T20:45:16.748Z,100866.34
2022-09-23T20:47:20.443Z,100874.31
2022-09-23T20:49:23.885Z,100834.66
2022-09-23T20:51:27.525Z,100881.50
2022-09-23T20:53:31.819Z,100883.25
2022-09-23T20:55:35.296Z,100817.09
2022-09-23T20:57:38.633Z,100886.72
2022-09-23T20:59:43.235Z,100855.63
2022-09-23T21:01:48.074Z,100895.19
2022-09-23T21:03:52.373Z,100901.25
2022-09-23T21:05:55.931Z,100878.34
2022-09-23T21:08:02.763Z,100858.94
2022-09-23T21:10:08.546Z,100883.78
2022-09-23T21:12:11.889Z,100882.91
2022-09-23T21:14:15.805Z,100878.59
2022-09-23T21:16:21.965Z,100876.91
2022-09-23T21:18:26.763Z,100819.66
2022-09-23T21:20:30.095Z,100876.94
2022-09-23T21:22:33.464Z,100847.75
2022-09-23T21:27:00.202Z,100837.16
2022-09-23T21:29:04.787Z,100871.59
2022-09-23T21:31:10.677Z,100848.69
2022-09-23T21:33:15.661Z,100876.94
2022-09-23T21:35:20.414Z,100844.41
2022-09-23T21:37:23.901Z,100865.38
2022-09-23T21:39:27.330Z,100861.00
2022-09-23T21:41:30.129Z,100863.56
2022-09-23T21:43:35.180Z,100873.28
2022-09-23T21:45:38.569Z,100871.50
2022-09-23T21:47:42.092Z,100861.84
2022-09-23T21:49:49.908Z,100869.66
2022-09-23T21:52:00.714Z,100831.69
2022-09-23T21:54:04.924Z,100873.06
2022-09-23T21:56:10.247Z,100844.81
2022-09-23T21:58:14.513Z,100875.75
2022-09-23T22:00:18.019Z,100878.34
2022-09-23T22:02:21.398Z,100882.78
2022-09-23T22:04:24.872Z,100835.25
2022-09-23T22:06:30.485Z,100879.41
2022-09-23T22:08:37.050Z,100880.16
2022-09-23T22:10:40.552Z,100874.84
2022-09-23T22:12:43.915Z,100888.81
2022-09-23T22:14:47.898Z,100883.59
2022-09-23T22:16:51.469Z,100876.66
2022-09-23T22:18:56.171Z,100696.88
2022-09-23T22:20:59.726Z,100876.69
2022-09-23T22:23:03.070Z,100872.31
2022-09-23T22:25:08.808Z,100859.91
2022-09-23T22:27:13.999Z,100857.41
2022-09-23T22:29:35.005Z,100878.53
2022-09-23T22:31:56.190Z,100870.63
2022-09-23T22:33:59.621Z,100844.13
2022-09-23T22:36:03.777Z,100873.25
2022-09-23T22:38:07.230Z,100874.13
2022-09-23T22:40:15.118Z,100788.69
2022-09-23T22:42:21.205Z,100730.50
2022-09-23T22:44:25.212Z,100843.91
2022-09-23T22:46:28.799Z,100816.44
2022-09-23T22:48:32.258Z,100815.25
2022-09-23T22:50:39.969Z,100845.81
2022-09-23T22:52:43.641Z,100815.75
2022-09-23T22:54:47.091Z,100863.28
2022-09-23T22:56:51.918Z,100741.38
2022-09-23T22:58:56.802Z,100832.34
2022-09-23T23:01:00.270Z,100866.63
2022-09-23T23:03:03.650Z,100864.94
2022-09-23T23:05:08.423Z,100822.56
2022-09-23T23:07:13.615Z,100805.84
2022-09-23T23:09:19.283Z,100853.66
2022-09-23T23:11:22.628Z,100843.13
2022-09-23T23:13:32.409Z,100822.84
2022-09-23T23:15:38.904Z,100821.09
2022-09-23T23:17:43.637Z,100840.59
2022-09-23T23:19:47.435Z,100848.50
2022-09-23T23:21:51.703Z,100840.78
2022-09-23T23:23:55.330Z,100846.19
2022-09-23T23:25:58.742Z,100842.88
2022-09-23T23:28:02.469Z,100845.56
2022-09-23T23:30:09.344Z,100820.91
2022-09-23T23:32:13.210Z,100841.06
2022-09-23T23:34:18.282Z,100859.56
2022-09-23T23:36:23.527Z,100859.56
2022-09-23T23:38:27.389Z,100848.16
2022-09-23T23:40:30.791Z,100853.50
2022-09-23T23:42:34.621Z,100847.44
2022-09-23T23:44:38.109Z,100831.59
2022-09-23T23:46:42.859Z,100844.00
2022-09-23T23:48:49.177Z,100830.81
2022-09-23T23:50:54.711Z,100833.50
2022-09-23T23:52:59.239Z,100839.63
2022-09-23T23:55:02.889Z,100850.81
2022-09-23T23:57:06.292Z,100833.78
2022-09-23T23:59:09.760Z,100848.69
